createdAt,value
2023-06-30T00:00:33.598Z,9.33
2023-06-30T00:03:05.316Z,7.77
2023-06-30T00:05:34.147Z,8.77
2023-06-30T00:08:02.045Z,10.80
2023-06-30T00:10:30.001Z,10.00
2023-06-30T00:12:58.480Z,8.17
2023-06-30T00:15:26.411Z,9.57
2023-06-30T00:17:54.735Z,9.73
2023-06-30T00:20:25.451Z,10.80
2023-06-30T00:22:54.190Z,9.33
2023-06-30T00:25:22.025Z,9.30
2023-06-30T00:27:51.407Z,11.03
2023-06-30T00:30:19.779Z,9.77
2023-06-30T00:32:48.883Z,9.80
2023-06-30T00:35:18.281Z,11.23
2023-06-30T00:37:49.079Z,10.27
2023-06-30T00:40:17.133Z,12.73
2023-06-30T00:42:45.852Z,11.23
2023-06-30T00:45:18.617Z,16.33
2023-06-30T00:47:46.941Z,12.43
2023-06-30T00:50:15.605Z,9.93
2023-06-30T00:52:46.139Z,12.23
2023-06-30T00:55:17.552Z,8.97
2023-06-30T00:57:49.515Z,10.47
2023-06-30T01:00:20.000Z,11.50
2023-06-30T01:02:54.485Z,10.23
2023-06-30T01:05:28.388Z,8.60
2023-06-30T01:08:05.248Z,10.40
2023-06-30T01:10:37.445Z,8.67
2023-06-30T01:13:08.967Z,8.33
2023-06-30T01:15:38.907Z,14.27
2023-06-30T01:18:09.908Z,9.20
2023-06-30T01:20:41.737Z,9.43
2023-06-30T01:23:14.769Z,10.07
2023-06-30T01:25:45.253Z,11.07
2023-06-30T01:28:16.169Z,8.40
2023-06-30T01:30:44.828Z,11.07
2023-06-30T01:33:13.424Z,9.27
2023-06-30T01:35:43.267Z,7.50
2023-06-30T01:38:11.565Z,8.47
2023-06-30T01:40:39.770Z,11.20
2023-06-30T01:43:11.772Z,10.47
2023-06-30T01:45:41.645Z,9.20
2023-06-30T01:48:11.057Z,9.63
2023-06-30T01:50:41.039Z,10.53
2023-06-30T01:53:09.179Z,10.07
2023-06-30T01:55:38.248Z,9.57
2023-06-30T01:58:06.222Z,8.23
2023-06-30T02:00:35.714Z,8.30
2023-06-30T02:03:04.029Z,11.20
2023-06-30T02:05:32.687Z,11.83
2023-06-30T02:08:00.689Z,13.00
2023-06-30T02:10:29.060Z,10.90
2023-06-30T02:12:57.502Z,12.87
2023-06-30T02:15:26.839Z,9.90
2023-06-30T02:17:56.204Z,9.23
2023-06-30T02:20:25.938Z,11.60
2023-06-30T02:22:54.499Z,10.40
2023-06-30T02:25:22.849Z,7.30
2023-06-30T02:27:53.516Z,9.07
2023-06-30T02:30:21.506Z,11.10
2023-06-30T02:32:49.602Z,9.03
2023-06-30T02:35:19.719Z,10.20
2023-06-30T02:37:47.629Z,10.30
2023-06-30T02:40:15.782Z,10.23
2023-06-30T02:42:43.729Z,9.30
2023-06-30T02:45:12.287Z,10.33
2023-06-30T02:47:41.723Z,10.77
2023-06-30T02:50:10.600Z,12.40
2023-06-30T02:52:41.194Z,7.93
2023-06-30T02:55:10.185Z,9.53
2023-06-30T02:57:40.359Z,11.53
2023-06-30T03:00:11.070Z,9.60
2023-06-30T03:02:39.274Z,10.53
2023-06-30T03:05:09.096Z,9.47
2023-06-30T03:07:37.105Z,10.47
2023-06-30T03:10:07.709Z,8.87
2023-06-30T03:12:35.637Z,10.10
2023-06-30T03:15:05.369Z,13.23
2023-06-30T03:17:34.669Z,15.33
2023-06-30T03:20:10.029Z,13.47
2023-06-30T03:22:37.912Z,12.67
2023-06-30T03:25:09.841Z,11.17
2023-06-30T03:27:38.334Z,12.63
2023-06-30T03:30:08.875Z,13.20
2023-06-30T03:32:36.709Z,13.80
2023-06-30T03:35:06.115Z,12.63
2023-06-30T03:37:34.533Z,13.20
2023-06-30T03:40:06.191Z,18.08
2023-06-30T03:42:35.804Z,17.57
2023-06-30T03:45:06.708Z,17.13
2023-06-30T03:47:34.632Z,23.77
2023-06-30T03:50:02.954Z,15.13
2023-06-30T03:52:30.954Z,18.13
2023-06-30T03:55:00.429Z,16.27
2023-06-30T03:57:28.626Z,15.40
2023-06-30T03:59:59.108Z,18.33
2023-06-30T04:02:27.745Z,17.83
2023-06-30T04:04:56.963Z,19.83
2023-06-30T04:07:25.555Z,24.43
2023-06-30T04:09:53.844Z,24.90
2023-06-30T04:12:23.393Z,22.60
2023-06-30T04:14:51.872Z,23.70
2023-06-30T04:17:22.728Z,21.50
2023-06-30T04:19:50.565Z,29.17
2023-06-30T04:22:19.472Z,24.50
2023-06-30T04:24:47.858Z,23.07
2023-06-30T04:27:20.877Z,26.70
2023-06-30T04:29:50.278Z,28.57
2023-06-30T04:33:20.770Z,30.70
2023-06-30T04:36:50.455Z,30.77
2023-06-30T04:40:17.254Z,30.90
2023-06-30T04:43:45.410Z,31.30
2023-06-30T04:47:13.334Z,31.73
2023-06-30T04:50:42.598Z,32.00
2023-06-30T04:54:11.101Z,26.80
2023-06-30T04:57:37.696Z,30.27
2023-06-30T05:01:10.194Z,28.57
2023-06-30T05:04:36.835Z,29.43
2023-06-30T05:08:06.642Z,32.30
2023-06-30T05:11:33.581Z,28.30
2023-06-30T05:15:00.472Z,34.60
2023-06-30T05:18:28.448Z,32.50
2023-06-30T05:21:55.119Z,26.57
2023-06-30T05:25:25.189Z,25.67
2023-06-30T05:29:03.393Z,24.27
2023-06-30T05:32:31.161Z,31.37
2023-06-30T05:35:57.794Z,30.27
2023-06-30T05:39:27.092Z,31.27
2023-06-30T05:42:54.284Z,26.73
2023-06-30T05:46:21.641Z,29.73
2023-06-30T05:49:49.527Z,26.70
2023-06-30T05:53:16.306Z,30.37
2023-06-30T05:56:44.317Z,33.33
2023-06-30T06:00:12.192Z,32.33
2023-06-30T06:03:40.314Z,34.33
2023-06-30T06:07:07.061Z,33.07
2023-06-30T06:10:34.482Z,32.53
2023-06-30T06:14:03.886Z,31.37
2023-06-30T06:17:04.339Z,31.37
2023-06-30T06:19:32.497Z,32.03
2023-06-30T06:22:01.681Z,31.43
2023-06-30T06:24:30.178Z,30.50
2023-06-30T06:27:01.199Z,30.13
2023-06-30T06:29:30.913Z,30.13
2023-06-30T06:32:01.841Z,28.17
2023-06-30T06:34:29.742Z,31.13
2023-06-30T06:36:58.917Z,28.23
2023-06-30T06:39:28.068Z,28.67
2023-06-30T06:41:57.738Z,30.80
2023-06-30T06:44:25.562Z,27.57
2023-06-30T06:47:34.165Z,30.97
2023-06-30T06:50:04.184Z,29.80
2023-06-30T06:52:35.913Z,30.00
2023-06-30T06:55:05.372Z,26.77
2023-06-30T06:57:33.351Z,27.50
2023-06-30T07:00:05.792Z,29.60
2023-06-30T07:02:35.305Z,31.63
2023-06-30T07:05:05.028Z,32.37
2023-06-30T07:07:34.312Z,32.73
2023-06-30T07:10:04.267Z,34.70
2023-06-30T07:12:35.377Z,38.17
2023-06-30T07:15:04.973Z,41.23
2023-06-30T07:17:35.226Z,39.77
2023-06-30T07:20:04.008Z,40.37
2023-06-30T07:22:34.415Z,37.20
2023-06-30T07:25:03.846Z,39.77
2023-06-30T07:27:32.492Z,39.57
2023-06-30T07:30:00.739Z,35.03
2023-06-30T07:32:28.814Z,35.70
2023-06-30T07:34:58.506Z,35.63
2023-06-30T07:37:26.920Z,33.63
2023-06-30T07:40:00.074Z,16.20
2023-06-30T07:42:35.707Z,16.30
2023-06-30T07:45:03.740Z,13.23
2023-06-30T07:47:32.604Z,12.00
2023-06-30T07:50:02.544Z,9.33
2023-06-30T07:52:30.978Z,6.67
2023-06-30T07:54:59.727Z,6.43
2023-06-30T07:57:30.228Z,4.83
2023-06-30T07:59:58.686Z,5.47
2023-06-30T08:02:26.914Z,4.47
2023-06-30T08:04:57.711Z,3.20
2023-06-30T08:10:12.315Z,3.10
2023-06-30T08:12:49.212Z,3.60
2023-06-30T08:15:17.481Z,4.70
2023-06-30T08:17:54.222Z,3.43
2023-06-30T08:20:24.987Z,3.00
2023-06-30T08:22:58.673Z,2.47
2023-06-30T08:25:28.314Z,2.20
2023-06-30T08:27:59.207Z,1.80
2023-06-30T08:30:28.815Z,2.00
2023-06-30T08:33:01.344Z,2.30
2023-06-30T08:35:30.365Z,4.33
2023-06-30T08:38:03.640Z,2.10
2023-06-30T08:40:33.585Z,1.73
2023-06-30T08:43:05.019Z,2.87
2023-06-30T08:45:34.334Z,2.07
2023-06-30T08:48:07.832Z,2.50
2023-06-30T08:50:36.493Z,3.03
2023-06-30T08:53:13.958Z,2.23
2023-06-30T08:55:42.519Z,1.70
2023-06-30T08:58:21.095Z,1.87
2023-06-30T09:00:55.530Z,1.90
2023-06-30T09:03:26.542Z,2.73
2023-06-30T09:05:57.131Z,3.10
2023-06-30T09:08:35.600Z,2.43
2023-06-30T09:11:08.762Z,5.20
2023-06-30T09:13:40.958Z,2.03
2023-06-30T09:16:19.191Z,1.70
2023-06-30T09:18:49.503Z,1.57
2023-06-30T09:21:20.115Z,2.23
2023-06-30T09:23:54.519Z,2.03
2023-06-30T09:26:25.132Z,1.40
2023-06-30T09:28:57.277Z,1.33
2023-06-30T09:31:33.644Z,1.83
2023-06-30T09:34:14.034Z,2.73
2023-06-30T09:36:50.590Z,4.10
2023-06-30T09:39:23.312Z,4.50
2023-06-30T09:41:52.976Z,1.53
2023-06-30T09:44:22.699Z,1.20
2023-06-30T09:46:53.605Z,2.10
2023-06-30T09:49:31.243Z,1.63
2023-06-30T09:52:02.034Z,2.60
2023-06-30T09:54:44.503Z,1.17
2023-06-30T09:57:13.992Z,2.83
2023-06-30T09:59:42.782Z,1.10
2023-06-30T10:02:17.218Z,1.00
2023-06-30T10:04:45.968Z,2.47
2023-06-30T10:07:16.000Z,0.80
2023-06-30T10:09:49.835Z,1.93
2023-06-30T10:12:22.539Z,0.67
2023-06-30T10:14:53.154Z,1.33
2023-06-30T10:17:21.595Z,1.70
2023-06-30T10:19:51.414Z,1.37
2023-06-30T10:22:20.081Z,1.57
2023-06-30T10:24:51.377Z,3.33
2023-06-30T10:27:21.843Z,1.13
2023-06-30T10:29:54.382Z,1.00
2023-06-30T10:32:22.921Z,0.60
2023-06-30T10:34:55.486Z,0.67
2023-06-30T10:37:28.265Z,0.57
2023-06-30T10:39:58.722Z,1.33
2023-06-30T10:42:31.749Z,3.50
2023-06-30T10:45:01.488Z,1.43
2023-06-30T10:47:30.257Z,0.83
2023-06-30T10:49:59.166Z,2.67
2023-06-30T10:52:29.532Z,1.57
2023-06-30T10:55:08.078Z,3.80
2023-06-30T10:57:39.058Z,1.00
2023-06-30T11:00:09.074Z,0.60
2023-06-30T11:02:38.246Z,0.60
2023-06-30T11:05:26.527Z,0.50
2023-06-30T11:08:05.139Z,0.73
2023-06-30T11:10:49.857Z,1.50
2023-06-30T11:13:18.338Z,0.40
2023-06-30T11:15:53.659Z,1.23
2023-06-30T11:18:25.444Z,1.00
2023-06-30T11:21:01.360Z,0.97
2023-06-30T11:23:32.020Z,0.70
2023-06-30T11:26:18.137Z,2.43
2023-06-30T11:28:48.832Z,1.37
2023-06-30T11:31:20.287Z,1.00
2023-06-30T11:34:00.175Z,1.93
2023-06-30T11:36:32.242Z,1.47
2023-06-30T11:39:03.686Z,0.83
2023-06-30T11:41:36.230Z,1.17
2023-06-30T11:44:05.365Z,1.00
2023-06-30T11:46:37.792Z,1.00
2023-06-30T11:49:06.875Z,0.60
2023-06-30T11:51:34.997Z,0.90
2023-06-30T11:54:08.683Z,1.90
2023-06-30T11:56:40.950Z,1.70
2023-06-30T11:59:09.862Z,1.40
2023-06-30T12:01:38.771Z,0.87
2023-06-30T12:04:35.325Z,2.37
2023-06-30T12:07:06.723Z,1.00
2023-06-30T12:09:36.979Z,0.80
2023-06-30T12:12:08.891Z,1.03
2023-06-30T12:14:46.026Z,0.80
2023-06-30T12:17:14.125Z,1.03
2023-06-30T12:19:49.313Z,0.97
2023-06-30T12:22:26.158Z,1.60
2023-06-30T12:24:57.567Z,1.03
2023-06-30T12:27:31.449Z,0.73
2023-06-30T12:30:00.321Z,1.40
2023-06-30T12:32:32.519Z,1.47
2023-06-30T12:35:07.655Z,1.90
2023-06-30T12:37:36.170Z,1.50
2023-06-30T12:40:07.051Z,1.67
2023-06-30T12:42:36.982Z,2.10
2023-06-30T12:45:09.418Z,3.17
2023-06-30T12:47:38.435Z,3.00
2023-06-30T12:50:07.892Z,1.50
2023-06-30T12:52:37.386Z,2.23
2023-06-30T12:55:07.464Z,1.77
2023-06-30T12:57:37.473Z,1.90
2023-06-30T13:00:09.645Z,1.40
2023-06-30T13:02:43.227Z,1.80
2023-06-30T13:05:19.290Z,4.17
2023-06-30T13:07:49.534Z,2.00
2023-06-30T13:10:18.076Z,2.07
2023-06-30T13:12:54.104Z,2.23
2023-06-30T13:15:23.712Z,1.10
2023-06-30T13:17:52.116Z,3.78
2023-06-30T13:20:20.573Z,2.78
2023-06-30T13:23:03.270Z,1.70
2023-06-30T13:25:37.941Z,2.10
2023-06-30T13:28:14.622Z,1.60
2023-06-30T13:30:46.161Z,3.40
2023-06-30T13:33:15.013Z,2.30
2023-06-30T13:35:49.537Z,1.70
2023-06-30T13:38:17.745Z,2.03
2023-06-30T13:40:50.146Z,3.70
2023-06-30T13:43:20.540Z,3.37
2023-06-30T13:45:48.681Z,1.63
2023-06-30T13:48:17.870Z,2.53
2023-06-30T13:50:46.414Z,1.85
2023-06-30T13:53:14.904Z,3.83
2023-06-30T13:55:42.930Z,3.10
2023-06-30T13:58:15.730Z,3.08
2023-06-30T14:00:48.364Z,1.88
2023-06-30T14:03:19.118Z,1.83
2023-06-30T14:05:51.582Z,3.25
2023-06-30T14:08:22.048Z,4.40
2023-06-30T14:10:53.637Z,4.75
2023-06-30T14:13:23.063Z,2.30
2023-06-30T14:16:02.763Z,1.98
2023-06-30T14:18:30.918Z,3.20
2023-06-30T14:20:59.502Z,2.20
2023-06-30T14:23:28.167Z,3.42
2023-06-30T14:25:56.992Z,3.58
2023-06-30T14:28:26.978Z,3.70
2023-06-30T14:30:58.987Z,5.32
2023-06-30T14:33:35.145Z,2.90
2023-06-30T14:36:04.709Z,4.07
2023-06-30T14:38:33.664Z,4.03
2023-06-30T14:41:03.217Z,4.17
2023-06-30T14:43:31.341Z,1.85
2023-06-30T14:46:01.103Z,3.57
2023-06-30T14:48:33.281Z,2.60
2023-06-30T14:51:01.295Z,3.37
2023-06-30T14:53:37.525Z,4.53
2023-06-30T14:56:06.346Z,3.53
2023-06-30T14:58:34.574Z,4.40
2023-06-30T15:01:04.362Z,2.08
2023-06-30T15:03:33.472Z,3.33
2023-06-30T15:06:06.245Z,3.55
2023-06-30T15:08:35.432Z,2.85
2023-06-30T15:11:04.081Z,4.65
2023-06-30T15:13:33.636Z,2.53
2023-06-30T15:16:18.670Z,2.22
2023-06-30T15:19:00.348Z,3.50
2023-06-30T15:21:44.369Z,4.60
2023-06-30T15:24:13.376Z,3.90
2023-06-30T15:26:42.704Z,3.97
2023-06-30T15:29:16.439Z,3.47
2023-06-30T15:31:46.596Z,3.45
2023-06-30T15:34:18.236Z,3.00
2023-06-30T15:36:51.763Z,5.10
2023-06-30T15:39:29.963Z,4.73
2023-06-30T15:41:58.189Z,3.93
2023-06-30T15:44:27.736Z,4.30
2023-06-30T15:47:00.523Z,4.00
2023-06-30T15:49:32.304Z,4.63
2023-06-30T15:52:00.904Z,3.67
2023-06-30T15:54:29.454Z,5.50
2023-06-30T15:57:04.309Z,7.53
2023-06-30T15:59:34.325Z,3.43
2023-06-30T16:02:05.278Z,4.87
2023-06-30T16:04:34.064Z,2.80
2023-06-30T16:07:02.140Z,3.20
2023-06-30T16:09:32.203Z,6.23
2023-06-30T16:12:07.471Z,5.47
2023-06-30T16:14:35.820Z,4.07
2023-06-30T16:17:06.526Z,2.90
2023-06-30T16:19:36.456Z,3.50
2023-06-30T16:22:08.376Z,4.03
2023-06-30T16:24:39.439Z,2.73
2023-06-30T16:27:09.557Z,2.80
2023-06-30T16:29:38.315Z,2.50
2023-06-30T16:32:16.302Z,3.80
2023-06-30T16:34:44.550Z,3.33
2023-06-30T16:37:14.231Z,3.83
2023-06-30T16:39:42.194Z,7.93
2023-06-30T16:42:10.085Z,5.30
2023-06-30T16:44:38.537Z,4.75
2023-06-30T16:47:11.939Z,4.38
2023-06-30T16:49:40.324Z,4.85
2023-06-30T16:52:09.445Z,5.63
2023-06-30T16:54:38.003Z,4.35
2023-06-30T16:57:07.924Z,3.80
2023-06-30T16:59:35.773Z,6.03
2023-06-30T17:02:05.227Z,5.77
2023-06-30T17:04:38.593Z,4.87
2023-06-30T17:07:07.823Z,5.53
2023-06-30T17:09:39.101Z,3.00
2023-06-30T17:12:08.438Z,4.10
2023-06-30T17:14:39.513Z,5.53
2023-06-30T17:17:08.316Z,3.13
2023-06-30T17:19:37.855Z,3.93
2023-06-30T17:22:10.220Z,5.00
2023-06-30T17:24:38.917Z,4.67
2023-06-30T17:27:08.414Z,4.37
2023-06-30T17:29:36.344Z,4.33
2023-06-30T17:32:05.215Z,6.30
2023-06-30T17:34:36.233Z,4.27
2023-06-30T17:37:09.307Z,6.53
2023-06-30T17:39:38.703Z,3.53
2023-06-30T17:42:07.680Z,4.50
2023-06-30T17:44:42.527Z,5.00
2023-06-30T17:47:13.614Z,5.25
2023-06-30T17:49:43.178Z,3.58
2023-06-30T17:52:12.789Z,3.88
2023-06-30T17:54:45.122Z,4.30
2023-06-30T17:57:14.357Z,4.03
2023-06-30T17:59:43.016Z,5.83
2023-06-30T18:02:11.541Z,5.80
2023-06-30T18:04:41.168Z,6.03
2023-06-30T18:07:13.106Z,3.80
2023-06-30T18:09:47.638Z,4.63
2023-06-30T18:12:15.880Z,3.33
2023-06-30T18:14:44.199Z,4.23
2023-06-30T18:17:16.427Z,4.70
2023-06-30T18:19:45.244Z,4.10
2023-06-30T18:22:14.781Z,5.37
2023-06-30T18:24:44.502Z,2.53
2023-06-30T18:27:12.442Z,5.10
2023-06-30T18:29:43.054Z,3.57
2023-06-30T18:32:12.079Z,2.63
2023-06-30T18:34:40.538Z,2.40
2023-06-30T18:37:09.072Z,3.37
2023-06-30T18:39:37.162Z,3.73
2023-06-30T18:42:09.090Z,3.20
2023-06-30T18:44:37.945Z,2.57
2023-06-30T18:47:08.025Z,3.47
2023-06-30T18:49:36.299Z,4.13
2023-06-30T18:52:07.328Z,4.53
2023-06-30T18:54:35.555Z,4.30
2023-06-30T18:57:06.066Z,4.83
2023-06-30T18:59:35.547Z,4.40
2023-06-30T19:02:03.810Z,2.57
2023-06-30T19:04:31.781Z,3.07
2023-06-30T19:06:59.954Z,2.63
2023-06-30T19:09:29.607Z,4.43
2023-06-30T19:11:59.515Z,3.03
2023-06-30T19:14:27.617Z,2.47
2023-06-30T19:16:57.156Z,5.03
2023-06-30T19:19:27.254Z,2.60
2023-06-30T19:21:55.010Z,3.60
2023-06-30T19:24:22.983Z,6.53
2023-06-30T19:26:51.248Z,2.80
2023-06-30T19:29:19.669Z,5.40
2023-06-30T19:31:47.590Z,3.67
2023-06-30T19:34:17.448Z,2.60
2023-06-30T19:36:45.364Z,2.77
2023-06-30T19:39:15.941Z,5.23
2023-06-30T19:41:43.780Z,3.70
2023-06-30T19:44:13.936Z,3.50
2023-06-30T19:46:42.162Z,4.77
2023-06-30T19:49:10.254Z,6.97
2023-06-30T19:51:39.471Z,3.00
2023-06-30T19:54:08.443Z,2.70
2023-06-30T19:56:38.151Z,27.17
2023-06-30T19:59:06.397Z,116.53
2023-06-30T20:01:34.274Z,127.23
2023-06-30T20:04:04.041Z,162.53
2023-06-30T20:06:31.999Z,144.77
2023-06-30T20:09:02.116Z,373.67
2023-06-30T20:11:31.272Z,46.73
2023-06-30T20:13:59.147Z,381.53
2023-06-30T20:16:27.483Z,273.53
2023-06-30T20:18:56.171Z,190.37
2023-06-30T20:21:24.747Z,136.63
2023-06-30T20:23:52.920Z,144.30
2023-06-30T20:26:23.430Z,127.97
2023-06-30T20:28:51.902Z,95.93
2023-06-30T20:31:20.478Z,55.90
2023-06-30T20:33:49.516Z,54.67
2023-06-30T20:36:17.681Z,45.40
2023-06-30T20:38:46.126Z,57.17
2023-06-30T20:41:15.101Z,50.10
2023-06-30T20:43:47.089Z,33.23
2023-06-30T20:46:15.399Z,36.60
2023-06-30T20:48:43.700Z,28.93
2023-06-30T20:51:12.356Z,24.07
2023-06-30T20:53:42.082Z,21.00
2023-06-30T20:56:09.878Z,23.83
2023-06-30T20:58:38.205Z,21.43
2023-06-30T21:01:07.688Z,17.07
2023-06-30T21:03:36.237Z,16.50
2023-06-30T21:06:05.474Z,14.93
2023-06-30T21:08:34.341Z,12.00
2023-06-30T21:11:02.548Z,9.07
2023-06-30T21:13:30.394Z,11.23
2023-06-30T21:15:59.916Z,12.90
2023-06-30T21:18:29.530Z,10.73
2023-06-30T21:21:00.949Z,12.13
2023-06-30T21:23:28.918Z,10.70
2023-06-30T21:25:56.699Z,12.37
2023-06-30T21:28:24.994Z,10.13
2023-06-30T21:30:53.808Z,12.43
2023-06-30T21:33:24.205Z,9.67
2023-06-30T21:35:53.883Z,9.67
2023-06-30T21:38:22.673Z,9.80
2023-06-30T21:40:50.787Z,14.10
2023-06-30T21:43:19.171Z,11.43
2023-06-30T21:45:47.741Z,9.77
2023-06-30T21:48:15.954Z,13.67
2023-06-30T21:50:43.833Z,8.73
2023-06-30T21:53:13.905Z,9.40
2023-06-30T21:55:41.859Z,7.13
2023-06-30T21:58:23.130Z,7.07
2023-06-30T22:00:58.184Z,5.70
2023-06-30T22:03:26.700Z,6.67
2023-06-30T22:05:56.546Z,7.70
2023-06-30T22:08:26.853Z,8.30
2023-06-30T22:10:55.976Z,9.40
2023-06-30T22:13:24.822Z,9.00
2023-06-30T22:15:55.092Z,11.40
2023-06-30T22:18:23.307Z,11.07
2023-06-30T22:20:51.558Z,6.90
2023-06-30T22:23:19.429Z,7.93
2023-06-30T22:25:51.264Z,7.07
2023-06-30T22:28:20.971Z,9.50
2023-06-30T22:30:49.271Z,10.60
2023-06-30T22:33:19.400Z,11.10
2023-06-30T22:35:51.766Z,8.83
2023-06-30T22:38:19.853Z,9.73
2023-06-30T22:40:52.358Z,8.27
2023-06-30T22:43:21.237Z,14.70
2023-06-30T22:45:54.185Z,12.80
2023-06-30T22:48:23.241Z,13.97
2023-06-30T22:50:54.890Z,10.67
2023-06-30T22:53:22.916Z,9.37
2023-06-30T22:55:53.058Z,10.57
2023-06-30T22:58:21.346Z,9.70
2023-06-30T23:00:49.625Z,9.93
2023-06-30T23:03:18.647Z,10.57
2023-06-30T23:05:49.859Z,9.67
2023-06-30T23:08:17.749Z,9.07
2023-06-30T23:10:47.327Z,9.73
2023-06-30T23:13:21.273Z,7.50
2023-06-30T23:15:50.520Z,9.83
2023-06-30T23:18:21.058Z,7.47
2023-06-30T23:20:53.454Z,5.93
2023-06-30T23:23:28.665Z,6.20
2023-06-30T23:25:56.652Z,5.93
2023-06-30T23:28:31.622Z,5.43
2023-06-30T23:31:03.150Z,6.83
2023-06-30T23:33:32.061Z,7.97
2023-06-30T23:36:00.177Z,6.50
2023-06-30T23:38:29.068Z,8.00
2023-06-30T23:40:57.812Z,7.57
2023-06-30T23:43:28.367Z,6.30
2023-06-30T23:45:58.350Z,5.40
2023-06-30T23:48:28.750Z,9.07
2023-06-30T23:50:58.335Z,6.37
2023-06-30T23:53:28.608Z,6.57
2023-06-30T23:56:07.111Z,6.80
2023-06-30T23:58:41.759Z,5.73
